Pickwick Observed Data For Previous 48 Hours

Caption
Day and Hour Reservoir Elevation (behind dam)* Tailwater Elevation (below dam)* Average Hourly Discharge*
9/21/2017 1 AM CDT 412.61 358.57 21,254
9/21/2017 2 AM CDT 412.55 358.11 21,407
9/21/2017 3 AM CDT 412.49 357.95 21,454
9/21/2017 4 AM CDT 412.57 357.67 21,556
9/21/2017 5 AM CDT 412.59 358.09 30,093
9/21/2017 6 AM CDT 412.61 358.37 30,278
9/21/2017 7 AM CDT 412.56 359.00 39,882
9/21/2017 8 AM CDT 412.47 359.39 41,143
9/21/2017 9 AM CDT 412.50 360.40 60,294
9/21/2017 10 AM CDT 412.55 361.30 61,539
9/21/2017 11 AM CDT 412.50 361.93 62,511
9/21/2017 12 PM CDT 412.47 362.26 62,903
9/21/2017 1 PM CDT 412.41 362.49 63,568
9/21/2017 2 PM CDT 412.42 362.67 63,491
9/21/2017 3 PM CDT 412.42 362.82 63,804
9/21/2017 4 PM CDT 412.43 362.87 63,821
9/21/2017 5 PM CDT 412.49 362.89 63,929
9/21/2017 6 PM CDT 412.49 362.96 63,929
9/21/2017 7 PM CDT 412.44 363.02 63,959
9/21/2017 8 PM CDT 412.43 363.04 63,780
9/21/2017 9 PM CDT 412.49 362.47 49,576
9/21/2017 10 PM CDT 412.54 361.49 31,996
9/21/2017 11 PM CDT 412.56 360.36 21,706
9/22/2017 12 AM CDT 412.56 359.43 21,328
9/22/2017 1 AM CDT 412.54 358.75 21,347
9/22/2017 2 AM CDT 412.50 358.28 21,221
9/22/2017 3 AM CDT 412.47 357.97 21,241
9/22/2017 4 AM CDT 412.46 357.75 21,310
9/22/2017 5 AM CDT 412.53 357.58 21,345
9/22/2017 6 AM CDT 412.49 357.58 21,376
9/22/2017 7 AM CDT 412.54 357.37 21,264
9/22/2017 8 AM CDT 412.53 357.24 21,408
9/22/2017 9 AM CDT 412.51 357.16 21,440
9/22/2017 10 AM CDT 412.58 357.26 21,611
9/22/2017 11 AM CDT 412.59 357.69 29,855
9/22/2017 12 PM CDT 412.58 358.00 30,260
9/22/2017 1 PM CDT 412.54 358.16 30,131
9/22/2017 2 PM CDT 412.51 358.78 39,880
9/22/2017 3 PM CDT 412.52 359.20 40,032
9/22/2017 4 PM CDT 412.55 359.37 39,771
9/22/2017 5 PM CDT 412.55 359.44 39,303
9/22/2017 6 PM CDT 412.65 359.61 39,742
9/22/2017 7 PM CDT 412.63 359.62 39,764
9/22/2017 8 PM CDT 412.66 359.14 30,142
9/22/2017 9 PM CDT 412.66 358.81 30,128
9/22/2017 10 PM CDT 412.65 358.61 29,801
9/22/2017 11 PM CDT 412.64 358.04 20,608

Elevations are in feet above sea level. Discharges are in cubic feet per second and are reported at the end of the hour.